Time;durP1;ratioP1;P1;durP2;ratioP2;P2;SDS_P1;SDS_P2;PMS_P1;PMS_P2;Temp;Humidity;BMP_temperature;BMP_pressure;BME280_temperature;BME280_humidity;BME280_pressure;Samples;Min_cycle;Max_cycle;Signal;HPM_P1;HPM_P2
2022/03/04 00:00:15;;;;;;;16.42;7.75;;;;;;;4.09;43.16;97269.34;4896275;28;20188;-83
2022/03/04 00:02:41;;;;;;;15.93;6.85;;;;;;;4.09;42.47;97267.53;4928669;28;20201;-83
2022/03/04 00:05:06;;;;;;;13.73;6.95;;;;;;;4.09;43.07;97259.81;4909821;28;20231;-83
2022/03/04 00:07:32;;;;;;;15.60;6.88;;;;;;;4.17;42.09;97263.97;4897631;28;20198;-83
2022/03/04 00:09:57;;;;;;;14.38;6.38;;;;;;;4.11;42.09;97269.91;4912869;28;20199;-83
2022/03/04 00:12:22;;;;;;;13.32;6.75;;;;;;;4.11;42.98;97278.47;4911960;28;20209;-83
2022/03/04 00:14:48;;;;;;;12.60;5.30;;;;;;;3.84;42.80;97261.41;4894424;28;20178;-83
2022/03/04 00:17:13;;;;;;;13.32;6.50;;;;;;;3.83;43.44;97265.00;4912286;28;20299;-83
2022/03/04 00:19:38;;;;;;;12.60;5.78;;;;;;;3.80;43.52;97260.25;4927797;28;20308;-83
2022/03/04 00:22:05;;;;;;;10.63;5.80;;;;;;;3.91;42.97;97273.31;4904678;28;20280;-83
2022/03/04 00:24:31;;;;;;;12.38;5.75;;;;;;;3.91;44.22;97263.00;4908541;28;20466;-83
2022/03/04 00:26:57;;;;;;;11.50;5.88;;;;;;;3.92;43.29;97266.38;4911882;28;20261;-83
2022/03/04 00:29:22;;;;;;;13.50;6.93;;;;;;;3.91;43.59;97273.31;4894302;28;20208;-83
2022/03/04 00:31:47;;;;;;;13.82;5.82;;;;;;;3.79;43.93;97274.09;4912185;28;20666;-82
2022/03/04 00:34:13;;;;;;;11.25;6.18;;;;;;;3.84;44.02;97272.53;4912293;28;20201;-82
2022/03/04 00:36:39;;;;;;;15.30;7.13;;;;;;;3.85;44.15;97274.09;4928019;28;20691;-83
2022/03/04 00:39:10;;;;;;;17.20;8.10;;;;;;;3.82;44.49;97274.53;4912486;28;20205;-81
2022/03/04 00:41:36;;;;;;;13.18;6.78;;;;;;;3.80;44.20;97275.69;4924708;28;20249;-83
2022/03/04 00:44:02;;;;;;;13.75;5.63;;;;;;;3.87;43.93;97284.22;4905547;28;20729;-83
2022/03/04 00:46:27;;;;;;;12.88;5.93;;;;;;;3.98;43.51;97278.47;4886116;28;20711;-83
2022/03/04 00:48:53;;;;;;;12.27;5.53;;;;;;;4.14;43.71;97282.41;4893083;28;20477;-83
2022/03/04 00:51:18;;;;;;;14.32;7.97;;;;;;;4.12;43.82;97279.25;4912363;28;20689;-83
2022/03/04 00:53:44;;;;;;;12.55;7.00;;;;;;;4.16;43.08;97277.84;4912291;28;20316;-83
2022/03/04 00:56:11;;;;;;;13.65;6.88;;;;;;;4.19;43.52;97272.28;4912084;28;20596;-83
2022/03/04 00:58:37;;;;;;;12.05;6.18;;;;;;;4.25;43.72;97268.94;4911225;28;20185;-83
2022/03/04 01:01:03;;;;;;;11.82;6.05;;;;;;;4.29;43.49;97269.31;4887715;28;20716;-83
2022/03/04 01:03:28;;;;;;;10.43;5.25;;;;;;;4.26;43.26;97273.06;4917341;28;20256;-83
2022/03/04 01:05:54;;;;;;;11.10;5.85;;;;;;;4.15;43.72;97271.13;4913599;28;20273;-83
2022/03/04 01:08:20;;;;;;;12.80;6.28;;;;;;;4.09;44.12;97270.13;4909824;28;20217;-83
2022/03/04 01:10:46;;;;;;;12.27;5.68;;;;;;;4.12;43.72;97280.03;4926331;28;20225;-83
2022/03/04 01:13:11;;;;;;;11.30;6.38;;;;;;;4.03;44.68;97281.25;4896465;28;20279;-83
2022/03/04 01:15:37;;;;;;;17.35;6.03;;;;;;;3.97;44.95;97276.09;4900121;28;20190;-83
2022/03/04 01:18:02;;;;;;;12.57;5.78;;;;;;;3.90;44.91;97276.88;4926936;28;20493;-83
2022/03/04 01:20:29;;;;;;;11.82;6.07;;;;;;;3.79;45.02;97269.75;4904487;28;20719;-83
2022/03/04 01:22:54;;;;;;;13.77;6.28;;;;;;;3.74;44.81;97272.91;4897867;28;20131;-83
2022/03/04 01:25:20;;;;;;;12.15;5.78;;;;;;;3.71;45.57;97257.06;4894427;28;20718;-83
2022/03/04 01:27:45;;;;;;;11.02;6.13;;;;;;;3.70;45.55;97265.78;4913301;28;20344;-83
2022/03/04 01:30:11;;;;;;;11.95;5.65;;;;;;;3.53;46.05;97261.03;4933038;28;20229;-82
2022/03/04 01:32:36;;;;;;;11.82;6.30;;;;;;;3.49;46.09;97266.75;4930651;28;20193;-82
2022/03/04 01:35:03;;;;;;;13.07;6.05;;;;;;;3.39;46.75;97264.56;4900134;28;20288;-82
2022/03/04 01:37:28;;;;;;;15.82;6.55;;;;;;;3.37;46.55;97271.69;4900229;28;20364;-82
2022/03/04 01:39:54;;;;;;;11.20;5.93;;;;;;;3.27;47.38;97261.75;4898718;28;20292;-81
2022/03/04 01:42:19;;;;;;;11.63;5.90;;;;;;;3.23;47.02;97264.94;4900213;28;20237;-82
2022/03/04 01:44:45;;;;;;;12.50;5.40;;;;;;;3.18;47.40;97263.72;4910443;28;20194;-82
2022/03/04 01:47:11;;;;;;;15.85;6.25;;;;;;;3.19;47.44;97262.75;4897209;28;20210;-81
2022/03/04 01:49:39;;;;;;;12.30;6.07;;;;;;;3.08;47.24;97262.53;4915364;28;20663;-81
2022/03/04 01:52:04;;;;;;;10.98;5.78;;;;;;;3.07;47.78;97261.75;4900070;28;20709;-81
2022/03/04 01:54:30;;;;;;;12.27;6.20;;;;;;;3.00;47.98;97260.94;4905767;28;20256;-81
2022/03/04 01:56:55;;;;;;;13.02;6.65;;;;;;;2.92;47.99;97253.38;4922026;28;20263;-81
2022/03/04 01:59:21;;;;;;;9.98;5.57;;;;;;;2.97;48.27;97251.03;4929933;28;20340;-81
2022/03/04 02:01:46;;;;;;;12.18;6.40;;;;;;;2.96;48.12;97259.72;4886277;28;20715;-82
2022/03/04 02:04:12;;;;;;;12.70;6.38;;;;;;;2.97;48.05;97261.31;4908192;28;20303;-80
2022/03/04 02:06:37;;;;;;;13.68;6.35;;;;;;;3.08;48.43;97265.09;4927636;28;20292;-81
2022/03/04 02:09:03;;;;;;;13.40;6.30;;;;;;;3.17;47.28;97261.34;4929989;28;20193;-82
2022/03/04 02:11:28;;;;;;;15.05;6.35;;;;;;;3.16;47.56;97260.56;4899384;28;20253;-81
2022/03/04 02:13:54;;;;;;;12.20;6.10;;;;;;;3.24;47.81;97259.59;4915111;28;20729;-82
2022/03/04 02:16:23;;;;;;;13.63;6.43;;;;;;;3.21;47.65;97261.78;4921606;28;20594;-82
2022/03/04 02:18:48;;;;;;;14.18;6.70;;;;;;;3.37;48.24;97257.03;4930613;28;20211;-82
2022/03/04 02:21:14;;;;;;;14.98;7.50;;;;;;;3.41;47.62;97267.75;4913395;28;20216;-82
2022/03/04 02:23:39;;;;;;;13.95;6.32;;;;;;;3.36;48.14;97264.97;4918549;28;20669;-82
2022/03/04 02:26:05;;;;;;;15.68;7.15;;;;;;;3.36;48.04;97275.28;4900288;28;20309;-82
2022/03/04 02:28:30;;;;;;;15.30;7.15;;;;;;;3.32;48.34;97268.91;4915149;28;20358;-82
2022/03/04 02:30:56;;;;;;;13.77;6.43;;;;;;;3.32;47.78;97274.84;4928614;28;20214;-82
2022/03/04 02:33:21;;;;;;;13.98;6.80;;;;;;;3.33;48.42;97270.50;4930778;28;20250;-82
2022/03/04 02:35:47;;;;;;;14.30;7.47;;;;;;;3.31;48.03;97272.50;4896205;28;20182;-82
2022/03/04 02:38:12;;;;;;;13.93;6.90;;;;;;;3.26;47.48;97274.84;4928524;28;20239;-82
2022/03/04 02:40:37;;;;;;;14.13;7.03;;;;;;;3.19;47.77;97269.69;4931019;28;20208;-81
2022/03/04 02:43:04;;;;;;;12.80;6.60;;;;;;;3.22;47.64;97263.34;4915671;28;20204;-83
2022/03/04 02:45:29;;;;;;;11.77;6.00;;;;;;;3.29;48.00;97262.38;4909097;28;20365;-82
2022/03/04 02:47:55;;;;;;;15.80;8.27;;;;;;;3.32;48.22;97272.25;4911862;28;20250;-82
2022/03/04 02:50:20;;;;;;;15.07;7.13;;;;;;;3.25;47.85;97268.09;4911764;28;20720;-82
2022/03/04 02:52:46;;;;;;;11.85;6.75;;;;;;;3.30;48.49;97263.16;4908766;28;20206;-82
2022/03/04 02:55:12;;;;;;;15.73;7.70;;;;;;;3.34;47.91;97267.75;4922009;28;20561;-82
2022/03/04 02:57:43;;;;;;;16.50;7.50;;;;;;;3.28;47.79;97257.44;4920047;28;20634;-82
2022/03/04 03:00:10;;;;;;;14.43;6.95;;;;;;;3.47;47.25;97263.59;4915493;28;20241;-82
2022/03/04 03:02:35;;;;;;;13.23;6.75;;;;;;;3.40;47.57;97255.88;4913813;28;20332;-82
2022/03/04 03:05:01;;;;;;;16.85;6.97;;;;;;;3.38;47.94;97263.00;4898970;28;20364;-82
2022/03/04 03:07:27;;;;;;;17.67;7.32;;;;;;;3.32;47.88;97256.03;4919768;28;20197;-82
2022/03/04 03:09:52;;;;;;;15.07;7.63;;;;;;;3.32;47.87;97263.75;4915166;28;20394;-82
2022/03/04 03:12:17;;;;;;;16.33;7.50;;;;;;;3.27;48.04;97260.97;4930839;28;20209;-82
2022/03/04 03:14:43;;;;;;;16.00;7.65;;;;;;;3.27;47.74;97255.84;4919546;28;20197;-82
2022/03/04 03:17:08;;;;;;;16.85;7.65;;;;;;;3.21;48.39;97261.78;4910917;28;20372;-82
2022/03/04 03:19:34;;;;;;;16.05;8.00;;;;;;;3.16;48.29;97258.00;4928274;28;20583;-82
2022/03/04 03:21:59;;;;;;;16.45;7.90;;;;;;;3.07;48.46;97246.31;4917825;28;20241;-82
2022/03/04 03:24:24;;;;;;;15.75;8.18;;;;;;;3.18;48.80;97253.44;4913439;28;20200;-82
2022/03/04 03:26:50;;;;;;;17.98;8.32;;;;;;;3.16;48.13;97255.41;4929866;28;20299;-82
2022/03/04 03:29:15;;;;;;;14.63;7.53;;;;;;;3.07;48.56;97246.31;4925082;28;20099;-82
2022/03/04 03:31:40;;;;;;;16.13;8.52;;;;;;;3.02;48.77;97253.00;4930054;28;20702;-81
2022/03/04 03:34:06;;;;;;;15.90;7.70;;;;;;;3.00;49.60;97259.16;4913440;28;20200;-82
2022/03/04 03:36:31;;;;;;;14.85;6.80;;;;;;;2.98;48.97;97257.75;4911793;28;20194;-82
2022/03/04 03:38:57;;;;;;;15.00;7.57;;;;;;;2.96;49.42;97250.22;4913471;28;20624;-82
2022/03/04 03:41:22;;;;;;;15.15;7.32;;;;;;;2.97;49.30;97251.81;4913942;28;20232;-82
2022/03/04 03:43:47;;;;;;;14.73;7.15;;;;;;;2.97;49.00;97251.03;4928088;28;20189;-82
2022/03/04 03:46:13;;;;;;;16.20;7.03;;;;;;;3.07;49.09;97259.16;4929671;28;20710;-81
2022/03/04 03:48:40;;;;;;;14.90;8.45;;;;;;;2.99;49.17;97244.69;4915846;28;20209;-82
2022/03/04 03:51:06;;;;;;;19.17;8.80;;;;;;;2.91;49.14;97257.72;4929558;28;20280;-81
2022/03/04 03:53:32;;;;;;;21.90;10.50;;;;;;;2.81;50.44;97242.66;4934444;28;20266;-81
2022/03/04 03:55:57;;;;;;;21.63;9.60;;;;;;;2.87;49.30;97253.16;4911181;28;20295;-81
2022/03/04 03:58:23;;;;;;;17.90;9.00;;;;;;;2.92;48.97;97253.38;4906828;28;20277;-81
2022/03/04 04:00:48;;;;;;;16.75;8.15;;;;;;;2.95;49.19;97250.44;4929128;28;20300;-82
2022/03/04 04:03:14;;;;;;;17.40;8.25;;;;;;;2.91;49.05;97246.66;4940136;28;20237;-81
2022/03/04 04:05:39;;;;;;;19.08;8.80;;;;;;;2.95;49.61;97253.78;4930859;28;20257;-81
2022/03/04 04:08:05;;;;;;;15.80;7.80;;;;;;;2.93;49.29;97253.19;4927851;28;20242;-80
2022/03/04 04:10:31;;;;;;;22.65;9.57;;;;;;;2.96;49.10;97247.63;4929038;28;20623;-81
2022/03/04 04:12:57;;;;;;;17.15;8.30;;;;;;;2.96;48.82;97246.84;4913110;28;20251;-81
2022/03/04 04:15:22;;;;;;;17.13;8.35;;;;;;;2.96;48.75;97246.84;4889270;28;20299;-81
2022/03/04 04:17:47;;;;;;;19.92;9.73;;;;;;;2.99;49.12;97249.84;4928894;28;20277;-80
2022/03/04 04:20:13;;;;;;;16.95;9.10;;;;;;;3.03;48.95;97255.38;4913083;28;20189;-81
2022/03/04 04:22:40;;;;;;;16.33;8.35;;;;;;;2.99;48.63;97249.06;4929006;28;20283;-80
2022/03/04 04:25:06;;;;;;;17.13;9.30;;;;;;;3.02;48.92;97258.97;4929111;28;20655;-80
2022/03/04 04:27:31;;;;;;;18.08;8.50;;;;;;;2.89;48.79;97256.34;4929126;28;20580;-80
2022/03/04 04:29:57;;;;;;;20.77;9.82;;;;;;;2.81;49.72;97263.25;4912308;28;20239;-80
2022/03/04 04:32:22;;;;;;;17.83;8.90;;;;;;;2.78;49.87;97262.84;4906543;28;20189;-80
2022/03/04 04:34:48;;;;;;;17.35;9.05;;;;;;;2.70;49.85;97263.78;4909441;28;20155;-80
2022/03/04 04:37:13;;;;;;;17.92;8.70;;;;;;;2.54;50.85;97256.41;4892512;28;20674;-80
2022/03/04 04:39:38;;;;;;;21.85;10.10;;;;;;;2.51;51.19;97267.06;4912218;28;20272;-80
2022/03/04 04:42:05;;;;;;;22.27;10.88;;;;;;;2.42;51.50;97269.00;4923767;28;20296;-80
2022/03/04 04:44:30;;;;;;;18.83;9.75;;;;;;;2.35;51.08;97258.69;4896832;28;20060;-80
2022/03/04 04:46:56;;;;;;;16.55;8.07;;;;;;;2.14;51.87;97248.47;4932698;28;20226;-80
2022/03/04 04:49:21;;;;;;;15.40;8.43;;;;;;;2.17;51.75;97260.94;4906573;28;20316;-80
2022/03/04 04:51:47;;;;;;;19.83;8.52;;;;;;;2.13;52.24;97262.31;4910753;28;20561;-79
2022/03/04 04:54:12;;;;;;;17.08;8.50;;;;;;;2.06;52.35;97254.56;4913287;28;20660;-79
2022/03/04 04:56:37;;;;;;;21.13;8.68;;;;;;;2.06;52.04;97255.34;4910049;28;20279;-79
2022/03/04 04:59:03;;;;;;;16.88;7.80;;;;;;;1.96;52.44;97266.94;4927881;28;20040;-79
2022/03/04 05:01:28;;;;;;;16.80;8.48;;;;;;;1.88;52.23;97262.72;4911908;28;20201;-79
2022/03/04 05:03:53;;;;;;;17.30;7.88;;;;;;;1.87;52.17;97261.13;4896162;28;20640;-79
2022/03/04 05:06:19;;;;;;;18.52;8.68;;;;;;;1.84;52.40;97257.16;4892900;28;20236;-79
2022/03/04 05:08:44;;;;;;;22.90;10.05;;;;;;;1.89;52.70;97264.31;4928211;28;20165;-79
2022/03/04 05:11:12;;;;;;;18.05;8.93;;;;;;;1.83;52.52;97275.31;4943516;28;20391;-79
2022/03/04 05:13:37;;;;;;;19.98;9.27;;;;;;;1.80;52.49;97273.13;4911830;28;20202;-79
2022/03/04 05:16:03;;;;;;;17.00;7.60;;;;;;;1.72;53.17;97279.19;4927905;28;20036;-79
2022/03/04 05:18:28;;;;;;;20.25;8.32;;;;;;;1.66;52.98;97275.59;4909824;28;20231;-79
2022/03/04 05:20:53;;;;;;;18.40;9.05;;;;;;;1.60;53.30;97278.88;4905289;28;20131;-79
2022/03/04 05:26:03;;;;;;;17.33;8.75;;;;;;;1.64;53.69;97284.44;4933833;28;20235;-79
2022/03/04 05:28:29;;;;;;;21.42;9.52;;;;;;;1.70;53.51;97286.28;4915479;28;20644;-79
2022/03/04 05:30:54;;;;;;;24.02;10.20;;;;;;;1.78;53.33;97295.63;4942380;28;20185;-79
2022/03/04 05:33:19;;;;;;;20.60;10.30;;;;;;;1.71;53.22;97305.03;4924193;28;20228;-79
2022/03/04 05:35:45;;;;;;;23.88;10.70;;;;;;;1.78;53.41;97303.31;4909279;28;20685;-79
2022/03/04 05:38:10;;;;;;;23.67;11.18;;;;;;;1.80;53.38;97296.22;4927892;28;20175;-79
2022/03/04 05:40:35;;;;;;;24.23;10.57;;;;;;;1.96;52.35;97295.19;4906052;28;20198;-79
2022/03/04 05:43:01;;;;;;;24.00;11.55;;;;;;;2.01;52.37;97300.53;4928022;28;20728;-79
2022/03/04 05:45:26;;;;;;;25.10;10.93;;;;;;;2.11;52.11;97307.91;4909935;28;20490;-79
2022/03/04 05:47:51;;;;;;;22.00;10.68;;;;;;;2.11;52.42;97308.72;4928337;28;20317;-79
2022/03/04 05:50:17;;;;;;;23.85;10.45;;;;;;;2.15;52.20;97311.72;4912319;28;20316;-78
2022/03/04 05:52:42;;;;;;;23.58;10.27;;;;;;;2.17;52.05;97313.09;4921837;28;20255;-79
2022/03/04 05:55:08;;;;;;;22.65;10.85;;;;;;;2.22;52.19;97312.53;4923483;28;20285;-79
2022/03/04 05:57:33;;;;;;;22.92;10.82;;;;;;;2.23;52.48;97317.50;4945096;28;20280;-79
2022/03/04 05:59:59;;;;;;;25.52;10.93;;;;;;;2.27;51.84;97315.34;4908555;28;20293;-78
2022/03/04 06:02:26;;;;;;;22.17;9.70;;;;;;;2.29;51.42;97315.94;4919769;28;20640;-79
2022/03/04 06:04:51;;;;;;;21.23;9.88;;;;;;;2.29;51.93;97323.66;4911273;28;20774;-78
2022/03/04 06:07:17;;;;;;;21.40;10.43;;;;;;;2.35;51.32;97315.22;4909100;28;20298;-79
2022/03/04 06:09:42;;;;;;;23.35;10.20;;;;;;;2.33;51.61;97317.19;4928870;28;20713;-78
2022/03/04 06:12:08;;;;;;;18.73;9.75;;;;;;;2.32;52.28;97323.28;4930944;28;20391;-78
2022/03/04 06:14:33;;;;;;;22.95;10.23;;;;;;;2.31;52.60;97326.81;4915249;28;20270;-78
2022/03/04 06:16:58;;;;;;;23.73;10.68;;;;;;;2.27;52.64;97333.31;4915167;28;20212;-79
2022/03/04 06:19:24;;;;;;;20.90;10.60;;;;;;;2.25;51.93;97335.28;4935334;28;20339;-78
2022/03/04 06:21:49;;;;;;;22.40;10.18;;;;;;;2.24;51.98;97347.34;4910165;28;20209;-78
2022/03/04 06:24:15;;;;;;;22.38;9.20;;;;;;;2.27;51.92;97335.09;4921152;28;20680;-78
2022/03/04 06:26:40;;;;;;;21.58;10.50;;;;;;;2.30;52.28;97343.25;4925905;28;20296;-79
2022/03/04 06:29:06;;;;;;;20.35;9.82;;;;;;;2.25;52.26;97355.84;4930360;28;20240;-78
2022/03/04 06:31:31;;;;;;;21.15;9.93;;;;;;;2.25;52.47;97343.00;4903737;28;20211;-79
2022/03/04 06:33:57;;;;;;;19.33;8.45;;;;;;;2.33;52.57;97350.56;4931102;28;20201;-79
2022/03/04 06:36:22;;;;;;;22.10;10.73;;;;;;;2.23;52.56;97355.25;4895661;28;20650;-79
2022/03/04 06:38:47;;;;;;;22.67;10.98;;;;;;;2.19;52.91;97349.69;4931124;28;20620;-79
2022/03/04 06:41:14;;;;;;;28.33;13.70;;;;;;;2.28;52.82;97358.06;4914930;28;20187;-79
2022/03/04 06:43:41;;;;;;;55.45;31.38;;;;;;;2.32;52.44;97361.03;4929138;28;20207;-79
2022/03/04 06:46:06;;;;;;;35.50;20.52;;;;;;;2.47;52.54;97363.50;4929718;28;20251;-79
2022/03/04 06:48:33;;;;;;;30.00;14.77;;;;;;;2.49;52.26;97366.69;4911277;28;20233;-79
2022/03/04 06:50:59;;;;;;;27.98;17.00;;;;;;;2.51;51.91;97367.28;4913318;28;20273;-79
2022/03/04 06:53:24;;;;;;;36.83;23.05;;;;;;;2.56;52.32;97354.66;4895435;28;20657;-79
2022/03/04 06:55:51;;;;;;;28.50;17.75;;;;;;;2.62;51.80;97365.00;4910097;28;20198;-79
2022/03/04 06:58:16;;;;;;;28.70;17.13;;;;;;;2.69;52.37;97357.31;4913683;28;20257;-79
2022/03/04 07:00:42;;;;;;;24.25;13.63;;;;;;;2.83;51.91;97368.47;4893157;28;20321;-79
2022/03/04 07:03:08;;;;;;;24.92;14.52;;;;;;;2.80;51.55;97372.22;4911875;28;20275;-79
2022/03/04 07:05:34;;;;;;;23.17;12.57;;;;;;;2.86;51.62;97369.88;4904146;28;20639;-80
2022/03/04 07:08:00;;;;;;;23.00;11.43;;;;;;;2.95;51.65;97376.47;4904393;28;20726;-80
2022/03/04 07:10:26;;;;;;;24.52;12.13;;;;;;;2.99;51.37;97377.66;4895968;28;20275;-80
2022/03/04 07:12:51;;;;;;;21.40;10.65;;;;;;;2.92;51.32;97371.69;4897866;28;20281;-80
2022/03/04 07:15:17;;;;;;;25.08;10.80;;;;;;;2.93;50.86;97378.41;4912903;28;20277;-80
2022/03/04 07:17:42;;;;;;;25.70;12.35;;;;;;;2.99;51.28;97386.16;4924880;28;20222;-80
2022/03/04 07:20:09;;;;;;;23.05;11.88;;;;;;;2.93;51.41;97383.53;4929574;28;20223;-80
2022/03/04 07:22:35;;;;;;;19.85;10.80;;;;;;;3.07;50.76;97390.34;4911999;28;20201;-80
2022/03/04 07:25:12;;;;;;;21.75;9.70;;;;;;;3.10;50.68;97400.28;4926868;28;20191;-80
2022/03/04 07:27:37;;;;;;;21.80;10.55;;;;;;;3.39;50.63;97398.41;4910213;28;20337;-80
2022/03/04 07:30:05;;;;;;;25.70;12.63;;;;;;;3.42;49.78;97398.00;4909929;28;20276;-80
2022/03/04 07:32:32;;;;;;;27.10;13.73;;;;;;;3.53;50.52;97410.34;4922565;28;20309;-80
2022/03/04 07:34:58;;;;;;;22.30;11.60;;;;;;;3.41;50.19;97401.59;4909718;28;20275;-80
2022/03/04 07:37:23;;;;;;;19.35;11.75;;;;;;;3.52;50.19;97405.38;4892631;28;20197;-80
2022/03/04 07:39:48;;;;;;;26.45;11.77;;;;;;;3.73;49.48;97415.53;4928667;28;20745;-81
2022/03/04 07:42:14;;;;;;;20.08;10.88;;;;;;;3.63;50.06;97416.91;4914770;28;20103;-80
2022/03/04 07:44:39;;;;;;;17.88;10.20;;;;;;;3.63;49.25;97415.09;4912001;28;20697;-81
2022/03/04 07:47:05;;;;;;;21.20;10.77;;;;;;;3.80;49.43;97415.56;4907559;28;20213;-80
2022/03/04 07:49:30;;;;;;;22.05;11.32;;;;;;;3.87;48.90;97410.41;4915256;28;20264;-81
2022/03/04 07:51:55;;;;;;;21.73;10.60;;;;;;;4.11;49.13;97427.09;4896386;28;20146;-80
2022/03/04 07:54:21;;;;;;;23.77;10.98;;;;;;;4.28;48.58;97418.03;4913288;28;20292;-80
2022/03/04 07:56:46;;;;;;;19.73;11.07;;;;;;;4.32;48.80;97419.19;4944433;28;20285;-81
2022/03/04 07:59:11;;;;;;;23.27;11.70;;;;;;;4.30;47.94;97413.47;4908274;28;20144;-80
2022/03/04 08:01:37;;;;;;;23.15;11.02;;;;;;;4.57;47.83;97418.59;4885116;28;20198;-81
2022/03/04 08:04:02;;;;;;;25.40;11.35;;;;;;;4.79;47.37;97428.69;4894874;28;20177;-81
2022/03/04 08:06:28;;;;;;;23.42;11.93;;;;;;;4.89;47.45;97431.66;4946053;28;20281;-81
2022/03/04 08:08:53;;;;;;;24.73;12.55;;;;;;;4.92;46.85;97435.63;4895848;28;20639;-80
2022/03/04 08:11:19;;;;;;;27.60;13.68;;;;;;;4.97;46.87;97438.38;4945238;28;20644;-81
2022/03/04 08:13:44;;;;;;;24.20;11.68;;;;;;;5.09;46.28;97430.81;4907624;28;20819;-80
2022/03/04 08:16:10;;;;;;;26.17;12.55;;;;;;;5.22;45.90;97434.16;4906663;28;20158;-81
2022/03/04 08:18:35;;;;;;;22.48;11.90;;;;;;;5.51;45.69;97428.72;4892397;28;20647;-81
2022/03/04 08:21:00;;;;;;;21.42;11.45;;;;;;;5.58;45.37;97434.63;4908024;28;20647;-81
2022/03/04 08:23:26;;;;;;;22.48;11.38;;;;;;;5.77;44.86;97435.53;4902238;28;20235;-81
2022/03/04 08:25:51;;;;;;;21.10;12.05;;;;;;;6.05;44.50;97437.81;4919045;28;20365;-82
2022/03/04 08:28:17;;;;;;;38.97;19.02;;;;;;;6.39;43.60;97433.19;4923250;28;20370;-83
2022/03/04 08:30:42;;;;;;;24.73;12.95;;;;;;;6.40;43.54;97424.44;4911777;28;20521;-81
2022/03/04 08:33:07;;;;;;;28.85;13.88;;;;;;;6.16;43.55;97433.75;4906781;28;20632;-81
2022/03/04 08:35:33;;;;;;;29.52;13.88;;;;;;;6.63;43.50;97435.97;4911529;28;20208;-81
2022/03/04 08:38:00;;;;;;;28.48;14.05;;;;;;;6.88;42.43;97433.38;4928559;28;20668;-80
2022/03/04 08:40:25;;;;;;;23.52;12.40;;;;;;;6.74;41.79;97440.47;4911774;28;20182;-81
2022/03/04 08:42:51;;;;;;;27.45;13.75;;;;;;;6.64;42.78;97443.53;4928530;28;20209;-81
2022/03/04 08:45:16;;;;;;;44.22;19.27;;;;;;;6.97;42.17;97436.47;4904257;28;20206;-80
2022/03/04 08:47:43;;;;;;;31.98;16.15;;;;;;;6.89;42.01;97442.75;4927657;28;20299;-81
2022/03/04 08:50:09;;;;;;;27.98;12.88;;;;;;;7.02;41.42;97441.81;4928599;28;20725;-81
2022/03/04 08:52:35;;;;;;;33.58;16.48;;;;;;;7.06;41.54;97448.94;4900138;28;20247;-80
2022/03/04 08:55:01;;;;;;;46.22;21.55;;;;;;;7.35;41.42;97445.84;4925104;28;20597;-80
2022/03/04 08:57:26;;;;;;;23.23;12.85;;;;;;;7.31;41.45;97448.84;4922739;28;20186;-81
2022/03/04 08:59:51;;;;;;;25.17;12.82;;;;;;;7.19;41.32;97454.97;4925259;28;20287;-81
2022/03/04 09:02:17;;;;;;;24.58;13.18;;;;;;;6.98;41.13;97458.78;4913506;28;20201;-80
2022/03/04 09:04:42;;;;;;;23.25;12.63;;;;;;;6.85;41.75;97455.28;4923605;28;20197;-80
2022/03/04 09:07:08;;;;;;;24.85;12.23;;;;;;;7.15;40.96;97461.59;4925834;28;20677;-81
2022/03/04 09:09:51;;;;;;;24.77;12.25;;;;;;;7.24;40.79;97460.31;4919812;28;20212;-80
2022/03/04 09:12:19;;;;;;;26.75;13.23;;;;;;;7.34;41.25;97457.22;4915706;28;20201;-82
2022/03/04 09:14:45;;;;;;;21.42;11.75;;;;;;;7.28;40.55;97457.06;4910788;28;20185;-81
2022/03/04 09:17:10;;;;;;;23.25;12.15;;;;;;;7.36;40.85;97453.41;4907714;28;20217;-80
2022/03/04 09:19:35;;;;;;;20.65;12.35;;;;;;;7.22;40.77;97455.34;4901879;28;20349;-81
2022/03/04 09:22:01;;;;;;;23.23;12.60;;;;;;;7.13;40.56;97448.88;4908316;28;20158;-82
2022/03/04 09:24:28;;;;;;;20.85;12.02;;;;;;;7.25;40.54;97446.38;4917952;28;20229;-81
2022/03/04 09:26:54;;;;;;;24.65;11.77;;;;;;;7.68;40.52;97454.03;4916060;28;20278;-83
2022/03/04 09:29:20;;;;;;;23.63;12.80;;;;;;;7.82;40.10;97452.03;4911305;28;20170;-82
2022/03/04 09:31:45;;;;;;;24.15;12.85;;;;;;;8.03;39.11;97448.16;4922864;28;20185;-82
2022/03/04 09:34:11;;;;;;;23.98;13.27;;;;;;;7.99;38.80;97452.22;4922325;28;20299;-83
2022/03/04 09:36:37;;;;;;;24.83;13.35;;;;;;;7.77;39.66;97443.34;4924438;28;20335;-82
2022/03/04 09:39:03;;;;;;;37.63;18.50;;;;;;;8.11;39.45;97451.47;4907317;28;20288;-83
2022/03/04 09:41:30;;;;;;;22.73;12.85;;;;;;;7.84;39.03;97446.66;4890624;28;20189;-82
2022/03/04 09:43:56;;;;;;;21.33;12.57;;;;;;;8.33;38.30;97442.19;4897144;28;20159;-82
2022/03/04 09:46:22;;;;;;;23.58;12.60;;;;;;;8.58;38.35;97443.81;4928023;28;20639;-83
2022/03/04 09:48:52;;;;;;;24.88;13.48;;;;;;;8.61;38.43;97448.56;4914043;28;20240;-83
2022/03/04 09:51:18;;;;;;;24.10;13.23;;;;;;;8.76;37.78;97443.72;4909456;28;20715;-83
2022/03/04 09:53:44;;;;;;;22.63;12.13;;;;;;;9.09;37.29;97444.94;4929248;28;20254;-86
2022/03/04 09:56:09;;;;;;;26.00;13.73;;;;;;;9.13;36.14;97437.47;4909213;28;20667;-84
2022/03/04 09:58:37;;;;;;;22.65;12.85;;;;;;;9.28;36.34;97439.59;4896776;28;20206;-84
2022/03/04 10:01:11;;;;;;;21.77;12.43;;;;;;;9.49;36.47;97449.41;4892683;28;20295;-85
2022/03/04 10:03:39;;;;;;;26.70;12.80;;;;;;;10.03;34.18;97438.66;4880036;28;20189;-83
2022/03/04 10:06:05;;;;;;;24.80;12.93;;;;;;;10.06;35.15;97437.44;4918025;28;20205;-85
2022/03/04 10:08:36;;;;;;;22.90;12.48;;;;;;;9.82;34.86;97434.94;4909499;28;20205;-82
2022/03/04 10:11:05;;;;;;;25.17;14.00;;;;;;;10.20;34.71;97432.72;4907982;28;20154;-84
2022/03/04 10:13:43;;;;;;;26.00;13.65;;;;;;;10.24;34.05;97439.78;4906422;28;20195;-85
2022/03/04 10:16:10;;;;;;;24.98;14.40;;;;;;;10.44;34.25;97433.38;4913264;28;20213;-84
2022/03/04 10:18:36;;;;;;;20.55;11.90;;;;;;;9.92;34.70;97429.09;4924592;28;20171;-83
2022/03/04 10:21:01;;;;;;;25.02;14.15;;;;;;;10.55;35.06;97429.13;4932626;28;20353;-83
2022/03/04 10:23:27;;;;;;;24.05;13.65;;;;;;;10.44;33.82;97433.38;4896152;28;20355;-85
2022/03/04 10:25:55;;;;;;;25.80;14.20;;;;;;;10.47;34.07;97435.53;4909134;28;20213;-85
2022/03/04 10:28:26;;;;;;;27.35;14.60;;;;;;;10.65;34.02;97434.47;4896422;28;20280;-84
2022/03/04 10:30:53;;;;;;;26.27;13.50;;;;;;;10.95;32.79;97439.34;4891252;28;20670;-85
2022/03/04 10:33:22;;;;;;;28.83;15.98;;;;;;;10.55;33.70;97429.91;4917361;28;20583;-85
2022/03/04 10:36:08;;;;;;;27.80;15.15;;;;;;;10.67;33.57;97428.00;4896593;28;20201;-86
2022/03/04 10:38:34;;;;;;;25.38;14.65;;;;;;;10.62;33.04;97440.94;4892673;28;20357;-85
2022/03/04 10:41:00;;;;;;;23.40;13.05;;;;;;;10.15;33.65;97414.41;4913312;28;20324;-87
2022/03/04 10:43:34;;;;;;;28.25;15.27;;;;;;;10.46;34.11;97432.13;4891060;28;20204;-86
2022/03/04 10:46:04;;;;;;;21.85;12.73;;;;;;;10.22;32.90;97439.25;4913134;28;20255;-81
2022/03/04 10:48:31;;;;;;;19.48;10.40;;;;;;;10.77;31.20;97431.78;4910187;28;20713;-84
2022/03/04 10:50:58;;;;;;;25.35;12.98;;;;;;;11.43;32.03;97440.47;4908345;28;20620;-85
2022/03/04 10:53:23;;;;;;;26.70;14.48;;;;;;;11.41;31.24;97436.53;4909490;28;20268;-84
2022/03/04 10:55:49;;;;;;;19.95;10.80;;;;;;;11.72;30.09;97429.84;4930122;28;20212;-86
2022/03/04 10:58:15;;;;;;;30.98;14.77;;;;;;;11.99;30.50;97431.69;4894749;28;20200;-86
2022/03/04 11:01:02;;;;;;;20.65;10.32;;;;;;;12.48;28.96;97428.19;4912802;28;20635;-86
2022/03/04 11:03:28;;;;;;;18.50;10.55;;;;;;;12.18;29.08;97424.28;4931651;28;20291;-85
2022/03/04 11:05:55;;;;;;;20.67;11.25;;;;;;;12.27;28.17;97429.84;4911744;28;20300;-84
2022/03/04 11:08:21;;;;;;;20.67;10.70;;;;;;;11.78;28.47;97421.03;4910403;28;20213;-84
2022/03/04 11:10:48;;;;;;;15.80;8.80;;;;;;;12.08;26.99;97427.63;4907967;28;20286;-88
2022/03/04 11:13:13;;;;;;;23.30;12.90;;;;;;;12.02;27.44;97420.75;4895640;28;20198;-85
2022/03/04 11:15:40;;;;;;;20.90;12.95;;;;;;;11.84;27.70;97421.88;4909684;28;20605;-86
2022/03/04 11:18:11;;;;;;;23.70;12.63;;;;;;;11.39;28.14;97420.34;4907351;28;20588;-86
2022/03/04 11:20:38;;;;;;;21.33;12.18;;;;;;;12.58;27.76;97417.00;4928446;28;20153;-86
2022/03/04 11:23:04;;;;;;;22.52;12.18;;;;;;;12.57;27.94;97413.63;4915557;28;20273;-87
2022/03/04 11:25:38;;;;;;;20.10;11.55;;;;;;;12.39;26.87;97414.81;4912464;28;20707;-85